createdAt,value
2023-03-22T00:01:37.952Z,39.00
2023-03-22T00:04:06.271Z,30.00
2023-03-22T00:06:34.794Z,32.00
2023-03-22T00:09:03.209Z,28.50
2023-03-22T00:11:31.666Z,27.50
2023-03-22T00:14:00.270Z,30.00
2023-03-22T00:16:28.737Z,31.00
2023-03-22T00:18:57.209Z,27.50
2023-03-22T00:21:25.786Z,33.00
2023-03-22T00:23:54.167Z,31.33
2023-03-22T00:26:22.649Z,30.00
2023-03-22T00:28:51.135Z,36.00
2023-03-22T00:31:20.260Z,33.00
2023-03-22T00:33:48.754Z,30.50
2023-03-22T00:36:17.190Z,33.00
2023-03-22T00:38:45.781Z,26.50
2023-03-22T00:41:21.541Z,31.00
2023-03-22T00:43:51.037Z,33.00
2023-03-22T00:46:21.330Z,29.00
2023-03-22T00:48:49.748Z,28.00
2023-03-22T00:51:18.428Z,32.00
2023-03-22T00:53:49.998Z,26.00
2023-03-22T00:56:19.076Z,33.00
2023-03-22T00:58:47.355Z,26.00
2023-03-22T01:01:15.807Z,30.00
2023-03-22T01:03:44.456Z,31.00
2023-03-22T01:06:12.898Z,37.00
2023-03-22T01:08:41.387Z,42.50
2023-03-22T01:11:10.596Z,31.50
2023-03-22T01:13:39.672Z,31.33
2023-03-22T01:16:09.901Z,40.50
2023-03-22T01:18:38.394Z,40.00
2023-03-22T01:21:07.412Z,34.00
2023-03-22T01:23:35.985Z,36.00
2023-03-22T01:26:05.767Z,36.00
2023-03-22T01:28:34.459Z,34.00
2023-03-22T01:31:03.474Z,31.00
2023-03-22T01:33:31.854Z,40.00
2023-03-22T01:36:00.649Z,30.00
2023-03-22T01:38:28.997Z,36.00
2023-03-22T01:40:57.796Z,34.00
2023-03-22T01:43:26.176Z,38.00
2023-03-22T01:45:55.352Z,30.00
2023-03-22T01:48:48.915Z,28.00
2023-03-22T01:51:19.977Z,21.67
2023-03-22T01:53:55.684Z,35.50
2023-03-22T01:56:26.261Z,18.00
2023-03-22T01:58:55.765Z,31.00
2023-03-22T02:01:24.696Z,29.00
2023-03-22T02:04:03.893Z,23.67
2023-03-22T02:06:32.782Z,38.00
2023-03-22T02:09:01.477Z,29.50
2023-03-22T02:11:33.936Z,28.50
2023-03-22T02:14:11.743Z,26.50
2023-03-22T02:16:58.460Z,26.00
2023-03-22T02:20:13.120Z,24.00
2023-03-22T02:23:14.881Z,25.00
2023-03-22T02:26:20.945Z,27.00
2023-03-22T02:29:04.480Z,25.00
2023-03-22T02:31:47.916Z,26.00
2023-03-22T02:34:41.280Z,31.50
2023-03-22T02:37:27.471Z,24.00
2023-03-22T02:40:14.394Z,24.00
2023-03-22T02:42:45.733Z,22.67
2023-03-22T02:45:18.948Z,22.00
2023-03-22T02:47:54.612Z,21.50
2023-03-22T02:50:28.730Z,24.75
2023-03-22T02:53:05.875Z,21.33
2023-03-22T02:55:59.035Z,21.00
2023-03-22T02:58:57.624Z,24.00
2023-03-22T03:01:29.534Z,29.33
2023-03-22T03:04:01.473Z,25.00
2023-03-22T03:09:05.102Z,23.00
2023-03-22T03:11:33.859Z,23.00
2023-03-22T03:14:02.142Z,22.50
2023-03-22T03:16:35.303Z,20.00
2023-03-22T03:19:11.284Z,18.00
2023-03-22T03:21:51.465Z,18.50
2023-03-22T03:24:49.720Z,19.00
2023-03-22T03:27:24.243Z,18.50
2023-03-22T03:30:02.495Z,20.50
2023-03-22T03:32:47.838Z,19.50
2023-03-22T03:35:32.761Z,16.50
2023-03-22T03:38:08.974Z,21.00
2023-03-22T03:40:42.260Z,17.67
2023-03-22T03:43:11.456Z,25.00
2023-03-22T03:45:40.189Z,23.00
2023-03-22T03:48:20.040Z,21.50
2023-03-22T03:50:51.439Z,19.00
2023-03-22T03:53:19.735Z,11.00
2023-03-22T03:55:48.146Z,13.00
2023-03-22T03:58:17.111Z,14.67
2023-03-22T04:00:46.777Z,17.00
2023-03-22T04:03:15.356Z,14.00
2023-03-22T04:05:44.077Z,14.00
2023-03-22T04:08:12.471Z,11.50
2023-03-22T04:10:41.305Z,16.00
2023-03-22T04:13:10.513Z,13.00
2023-03-22T04:15:38.820Z,15.00
2023-03-22T04:18:09.901Z,18.00
2023-03-22T04:20:42.022Z,16.00
2023-03-22T04:23:11.330Z,15.50
2023-03-22T04:25:39.716Z,15.00
2023-03-22T04:28:09.964Z,10.00
2023-03-22T04:30:39.127Z,15.33
2023-03-22T04:33:07.736Z,12.00
2023-03-22T04:35:36.238Z,23.00
2023-03-22T04:38:04.686Z,23.00
2023-03-22T04:40:36.917Z,23.00
2023-03-22T04:43:05.636Z,20.50
2023-03-22T04:45:35.346Z,25.00
2023-03-22T04:48:04.080Z,26.00
2023-03-22T04:50:32.309Z,22.00
2023-03-22T04:53:00.690Z,23.00
2023-03-22T04:57:58.621Z,24.00
2023-03-22T05:00:30.649Z,21.00
2023-03-22T05:02:59.074Z,22.00
2023-03-22T05:05:27.461Z,19.00
2023-03-22T05:07:56.622Z,15.00
2023-03-22T05:10:24.872Z,19.00
2023-03-22T05:12:53.293Z,15.33
2023-03-22T05:15:21.792Z,10.00
2023-03-22T05:17:50.232Z,19.00
2023-03-22T05:20:18.900Z,19.50
2023-03-22T05:22:50.758Z,15.00
2023-03-22T05:25:19.139Z,16.00
2023-03-22T05:27:50.518Z,15.25
2023-03-22T05:30:19.176Z,18.00
2023-03-22T05:32:47.775Z,15.50
2023-03-22T05:35:16.350Z,12.00
2023-03-22T05:37:45.032Z,12.00
2023-03-22T05:40:13.759Z,12.00
2023-03-22T05:42:42.414Z,12.00
2023-03-22T05:45:12.337Z,13.00
2023-03-22T05:47:40.702Z,15.50
2023-03-22T05:50:10.942Z,16.50
2023-03-22T05:52:39.228Z,12.00
2023-03-22T05:55:08.096Z,12.00
2023-03-22T05:57:36.378Z,16.50
2023-03-22T06:00:13.621Z,15.50
2023-03-22T06:02:43.300Z,10.00
2023-03-22T06:05:12.063Z,18.00
2023-03-22T06:07:41.570Z,15.00
2023-03-22T06:10:12.582Z,15.00
2023-03-22T06:12:41.341Z,15.33
2023-03-22T06:17:38.983Z,13.50
2023-03-22T06:20:12.200Z,13.00
2023-03-22T06:22:41.162Z,14.00
2023-03-22T06:25:11.239Z,18.00
2023-03-22T06:27:39.556Z,16.00
2023-03-22T06:30:08.759Z,10.50
2023-03-22T06:32:37.029Z,10.50
2023-03-22T06:35:06.022Z,14.00
2023-03-22T06:37:34.200Z,13.00
2023-03-22T06:40:02.785Z,15.00
2023-03-22T06:42:34.540Z,15.00
2023-03-22T06:45:03.428Z,12.33
2023-03-22T06:47:31.708Z,15.00
2023-03-22T06:50:00.184Z,13.00
2023-03-22T06:52:28.595Z,15.00
2023-03-22T06:54:57.252Z,12.50
2023-03-22T06:57:25.933Z,13.00
2023-03-22T06:59:54.447Z,12.00
2023-03-22T07:02:22.769Z,14.00
2023-03-22T07:04:51.206Z,14.50
2023-03-22T07:07:19.702Z,13.50
2023-03-22T07:09:48.137Z,12.00
2023-03-22T07:12:17.141Z,15.00
2023-03-22T07:14:45.720Z,19.00
2023-03-22T07:17:14.468Z,13.00
2023-03-22T07:19:43.299Z,18.00
2023-03-22T07:22:11.811Z,17.50
2023-03-22T07:24:53.817Z,17.00
2023-03-22T07:27:25.252Z,13.00
2023-03-22T07:29:53.630Z,15.00
2023-03-22T07:32:22.074Z,14.00
2023-03-22T07:34:50.578Z,13.00
2023-03-22T07:37:18.970Z,14.50
2023-03-22T07:39:47.332Z,13.00
2023-03-22T07:42:15.835Z,18.00
2023-03-22T07:44:44.299Z,13.50
2023-03-22T07:47:13.538Z,16.00
2023-03-22T07:52:10.570Z,15.00
2023-03-22T07:54:39.456Z,14.00
2023-03-22T07:57:08.686Z,18.00
2023-03-22T07:59:39.796Z,21.00
2023-03-22T08:02:11.028Z,17.00
2023-03-22T08:04:39.529Z,16.00
2023-03-22T08:07:10.368Z,20.00
2023-03-22T08:09:39.173Z,14.00
2023-03-22T08:12:07.548Z,19.00
2023-03-22T08:14:37.907Z,18.00
2023-03-22T08:17:06.991Z,18.00
2023-03-22T08:19:36.115Z,20.00
2023-03-22T08:22:05.571Z,18.50
2023-03-22T08:24:34.036Z,13.00
2023-03-22T08:27:02.539Z,23.50
2023-03-22T08:29:30.943Z,19.00
2023-03-22T08:32:02.669Z,21.00
2023-03-22T08:34:31.650Z,21.00
2023-03-22T08:36:59.851Z,21.50
2023-03-22T08:39:28.715Z,16.00
2023-03-22T08:41:57.000Z,23.00
2023-03-22T08:46:55.491Z,19.00
2023-03-22T08:49:23.873Z,21.00
2023-03-22T08:51:52.250Z,22.00
2023-03-22T08:54:21.051Z,26.67
2023-03-22T08:56:50.459Z,22.00
2023-03-22T08:59:18.924Z,23.00
2023-03-22T09:01:47.513Z,17.00
2023-03-22T09:04:16.408Z,29.00
2023-03-22T09:06:45.907Z,33.00
2023-03-22T09:09:14.817Z,22.00
2023-03-22T09:17:45.783Z,22.67
2023-03-22T09:20:14.153Z,22.33
2023-03-22T09:22:42.968Z,20.33
2023-03-22T09:25:12.942Z,29.25
2023-03-22T09:27:41.645Z,19.00
2023-03-22T09:30:11.386Z,21.67
2023-03-22T09:32:42.720Z,20.67
2023-03-22T09:35:11.190Z,25.33
2023-03-22T09:37:39.572Z,19.50
2023-03-22T09:40:08.664Z,21.00
2023-03-22T09:42:49.128Z,20.50
2023-03-22T09:45:21.434Z,24.00
2023-03-22T09:47:53.301Z,25.67
2023-03-22T09:50:24.267Z,22.67
2023-03-22T09:52:53.503Z,22.67
2023-03-22T09:59:47.713Z,22.00
2023-03-22T10:02:34.252Z,21.00
2023-03-22T10:05:39.808Z,24.50
2023-03-22T10:08:19.002Z,23.25
2023-03-22T10:10:47.480Z,23.00
2023-03-22T10:13:21.604Z,24.67
2023-03-22T10:15:59.993Z,24.50
2023-03-22T10:18:41.906Z,24.00
2023-03-22T10:21:12.228Z,25.00
2023-03-22T10:23:44.275Z,23.50
2023-03-22T10:26:21.930Z,27.50
2023-03-22T10:29:04.120Z,19.33
2023-03-22T10:31:34.683Z,19.67
2023-03-22T10:34:06.894Z,22.00
2023-03-22T10:36:37.455Z,24.33
2023-03-22T10:39:26.293Z,23.50
2023-03-22T10:41:57.959Z,21.00
2023-03-22T10:44:28.059Z,22.33
2023-03-22T10:46:57.671Z,21.00
2023-03-22T10:49:32.758Z,22.75
2023-03-22T10:52:14.501Z,23.00
2023-03-22T10:54:43.227Z,23.00
2023-03-22T10:57:11.776Z,24.67
2023-03-22T10:59:51.251Z,20.00
2023-03-22T11:02:22.253Z,22.67
2023-03-22T11:04:53.825Z,20.00
2023-03-22T11:07:31.166Z,20.00
2023-03-22T11:10:08.596Z,15.67
2023-03-22T11:12:59.601Z,21.00
2023-03-22T11:15:29.435Z,21.33
2023-03-22T11:18:16.156Z,20.00
2023-03-22T11:20:56.897Z,22.67
2023-03-22T11:23:26.198Z,22.00
2023-03-22T11:25:57.342Z,25.00
2023-03-22T11:28:34.857Z,22.00
2023-03-22T11:31:11.002Z,30.33
2023-03-22T11:33:58.932Z,25.00
2023-03-22T11:36:28.755Z,24.67
2023-03-22T11:38:59.379Z,20.00
2023-03-22T11:41:30.635Z,22.33
2023-03-22T11:44:03.178Z,27.00
2023-03-22T11:46:32.386Z,18.00
2023-03-22T11:49:08.547Z,21.33
2023-03-22T11:51:39.089Z,25.67
2023-03-22T11:54:09.836Z,32.00
2023-03-22T11:56:43.372Z,37.00
2023-03-22T11:59:26.756Z,28.00
2023-03-22T12:02:28.290Z,23.00
2023-03-22T12:05:02.511Z,27.00
2023-03-22T12:07:32.138Z,23.67
2023-03-22T12:10:28.994Z,33.33
2023-03-22T12:13:33.505Z,34.00
2023-03-22T12:16:05.528Z,27.67
2023-03-22T12:18:51.669Z,27.33
2023-03-22T12:21:19.982Z,28.67
2023-03-22T12:23:48.428Z,33.50
2023-03-22T12:26:28.925Z,32.33
2023-03-22T12:29:16.012Z,39.00
2023-03-22T12:31:59.642Z,29.33
2023-03-22T12:34:41.666Z,26.00
2023-03-22T12:37:16.142Z,32.00
2023-03-22T12:39:51.616Z,28.33
2023-03-22T12:42:50.811Z,30.67
2023-03-22T12:45:27.731Z,28.50
2023-03-22T12:48:06.952Z,34.67
2023-03-22T12:50:39.617Z,33.50
2023-03-22T12:53:13.536Z,37.00
2023-03-22T12:55:42.467Z,30.00
2023-03-22T12:58:14.601Z,37.00
2023-03-22T13:00:48.529Z,34.00
2023-03-22T13:03:17.877Z,36.50
2023-03-22T13:05:48.463Z,30.00
2023-03-22T13:08:21.928Z,37.50
2023-03-22T13:11:01.673Z,33.50
2023-03-22T13:13:30.066Z,31.00
2023-03-22T13:16:13.481Z,33.00
2023-03-22T13:18:45.552Z,31.00
2023-03-22T13:21:19.406Z,33.00
2023-03-22T13:23:56.857Z,33.67
2023-03-22T13:26:47.718Z,35.00
2023-03-22T13:29:37.333Z,31.67
2023-03-22T13:32:24.619Z,36.00
2023-03-22T13:34:53.763Z,37.00
2023-03-22T13:37:37.620Z,27.50
2023-03-22T13:40:30.236Z,34.00
2023-03-22T13:43:14.051Z,32.00
2023-03-22T13:46:06.522Z,31.67
2023-03-22T13:48:44.860Z,32.00
2023-03-22T13:51:22.263Z,40.50
2023-03-22T13:54:24.602Z,35.33
2023-03-22T13:57:00.458Z,40.33
2023-03-22T13:59:32.630Z,27.00
2023-03-22T14:02:18.661Z,34.00
2023-03-22T14:04:51.171Z,39.00
2023-03-22T14:07:19.886Z,33.00
2023-03-22T14:09:54.889Z,30.67
2023-03-22T14:12:32.871Z,28.67
2023-03-22T14:15:04.781Z,33.33
2023-03-22T14:17:41.195Z,34.67
2023-03-22T14:20:14.783Z,36.67
